sensor_id;sensor_type;location;lat;lon;timestamp;P1;durP1;ratioP1;P2;durP2;ratioP2
73672;SDS011;61972;19.480;-99.240;2022-12-29T00:01:17;4.22;;;2.92;;
73672;SDS011;61972;19.480;-99.240;2022-12-29T00:03:45;7.32;;;3.15;;
73672;SDS011;61972;19.480;-99.240;2022-12-29T00:06:12;4.60;;;2.95;;
73672;SDS011;61972;19.480;-99.240;2022-12-29T00:08:38;6.07;;;2.80;;
73672;SDS011;61972;19.480;-99.240;2022-12-29T00:13:36;5.18;;;2.78;;
73672;SDS011;61972;19.480;-99.240;2022-12-29T00:16:20;5.75;;;3.00;;
73672;SDS011;61972;19.480;-99.240;2022-12-29T00:18:47;5.07;;;3.05;;
73672;SDS011;61972;19.480;-99.240;2022-12-29T00:21:14;5.10;;;2.80;;
73672;SDS011;61972;19.480;-99.240;2022-12-29T00:23:59;6.03;;;3.10;;
73672;SDS011;61972;19.480;-99.240;2022-12-29T00:26:44;5.05;;;2.75;;
73672;SDS011;61972;19.480;-99.240;2022-12-29T00:29:30;5.20;;;3.13;;
73672;SDS011;61972;19.480;-99.240;2022-12-29T00:32:14;4.57;;;2.78;;
73672;SDS011;61972;19.480;-99.240;2022-12-29T00:35:01;4.22;;;2.63;;
73672;SDS011;61972;19.480;-99.240;2022-12-29T00:37:34;7.27;;;2.53;;
73672;SDS011;61972;19.480;-99.240;2022-12-29T00:40:26;5.43;;;2.67;;
73672;SDS011;61972;19.480;-99.240;2022-12-29T00:43:11;5.22;;;2.60;;
73672;SDS011;61972;19.480;-99.240;2022-12-29T00:45:55;5.68;;;2.70;;
73672;SDS011;61972;19.480;-99.240;2022-12-29T00:48:21;5.38;;;3.05;;
73672;SDS011;61972;19.480;-99.240;2022-12-29T00:51:06;4.43;;;2.63;;
73672;SDS011;61972;19.480;-99.240;2022-12-29T00:53:33;5.97;;;2.90;;
73672;SDS011;61972;19.480;-99.240;2022-12-29T00:56:00;6.10;;;2.70;;
73672;SDS011;61972;19.480;-99.240;2022-12-29T00:58:29;6.03;;;2.92;;
73672;SDS011;61972;19.480;-99.240;2022-12-29T01:01:05;6.78;;;2.92;;
73672;SDS011;61972;19.480;-99.240;2022-12-29T01:03:36;5.50;;;2.47;;
73672;SDS011;61972;19.480;-99.240;2022-12-29T01:06:03;5.07;;;2.90;;
73672;SDS011;61972;19.480;-99.240;2022-12-29T01:08:31;6.05;;;2.60;;
73672;SDS011;61972;19.480;-99.240;2022-12-29T01:11:08;5.70;;;3.17;;
73672;SDS011;61972;19.480;-99.240;2022-12-29T01:13:35;5.57;;;2.70;;
73672;SDS011;61972;19.480;-99.240;2022-12-29T01:16:03;4.30;;;2.80;;
73672;SDS011;61972;19.480;-99.240;2022-12-29T01:18:30;5.55;;;3.20;;
73672;SDS011;61972;19.480;-99.240;2022-12-29T01:21:04;6.10;;;3.22;;
73672;SDS011;61972;19.480;-99.240;2022-12-29T01:23:31;6.30;;;3.53;;
73672;SDS011;61972;19.480;-99.240;2022-12-29T01:26:07;6.45;;;3.10;;
73672;SDS011;61972;19.480;-99.240;2022-12-29T01:28:34;4.93;;;2.90;;
73672;SDS011;61972;19.480;-99.240;2022-12-29T01:31:00;4.82;;;3.00;;
73672;SDS011;61972;19.480;-99.240;2022-12-29T01:33:26;7.45;;;3.58;;
73672;SDS011;61972;19.480;-99.240;2022-12-29T01:35:53;5.78;;;3.40;;
73672;SDS011;61972;19.480;-99.240;2022-12-29T01:38:19;5.10;;;3.38;;
73672;SDS011;61972;19.480;-99.240;2022-12-29T01:40:45;6.27;;;3.57;;
73672;SDS011;61972;19.480;-99.240;2022-12-29T01:43:12;6.75;;;3.85;;
73672;SDS011;61972;19.480;-99.240;2022-12-29T01:45:44;5.60;;;3.40;;
73672;SDS011;61972;19.480;-99.240;2022-12-29T01:48:15;6.43;;;3.50;;
73672;SDS011;61972;19.480;-99.240;2022-12-29T01:50:46;5.32;;;3.40;;
73672;SDS011;61972;19.480;-99.240;2022-12-29T01:53:35;5.23;;;3.63;;
73672;SDS011;61972;19.480;-99.240;2022-12-29T01:56:04;6.70;;;3.70;;
73672;SDS011;61972;19.480;-99.240;2022-12-29T01:58:34;6.07;;;3.35;;
73672;SDS011;61972;19.480;-99.240;2022-12-29T02:01:05;5.88;;;3.50;;
73672;SDS011;61972;19.480;-99.240;2022-12-29T02:03:31;7.15;;;3.50;;
73672;SDS011;61972;19.480;-99.240;2022-12-29T02:06:03;6.93;;;3.50;;
73672;SDS011;61972;19.480;-99.240;2022-12-29T02:08:43;7.78;;;4.00;;
73672;SDS011;61972;19.480;-99.240;2022-12-29T02:11:12;5.63;;;3.70;;
73672;SDS011;61972;19.480;-99.240;2022-12-29T02:13:39;6.72;;;3.80;;
73672;SDS011;61972;19.480;-99.240;2022-12-29T02:35:36;7.70;;;3.80;;
73672;SDS011;61972;19.480;-99.240;2022-12-29T02:38:35;6.00;;;3.63;;
73672;SDS011;61972;19.480;-99.240;2022-12-29T02:44:12;6.13;;;3.40;;
73672;SDS011;61972;19.480;-99.240;2022-12-29T02:46:51;6.83;;;3.80;;
73672;SDS011;61972;19.480;-99.240;2022-12-29T02:49:34;6.00;;;3.60;;
73672;SDS011;61972;19.480;-99.240;2022-12-29T02:52:09;7.05;;;3.50;;
73672;SDS011;61972;19.480;-99.240;2022-12-29T02:54:49;8.20;;;3.70;;
73672;SDS011;61972;19.480;-99.240;2022-12-29T02:59:54;6.63;;;3.80;;
73672;SDS011;61972;19.480;-99.240;2022-12-29T03:11:12;6.85;;;4.00;;
73672;SDS011;61972;19.480;-99.240;2022-12-29T03:16:49;5.55;;;3.60;;
73672;SDS011;61972;19.480;-99.240;2022-12-29T03:22:18;5.60;;;3.25;;
73672;SDS011;61972;19.480;-99.240;2022-12-29T03:24:57;5.82;;;3.50;;
73672;SDS011;61972;19.480;-99.240;2022-12-29T03:27:47;4.97;;;3.10;;
73672;SDS011;61972;19.480;-99.240;2022-12-29T03:30:18;5.47;;;3.42;;
73672;SDS011;61972;19.480;-99.240;2022-12-29T03:32:46;5.13;;;3.00;;
73672;SDS011;61972;19.480;-99.240;2022-12-29T03:35:15;6.22;;;3.35;;
73672;SDS011;61972;19.480;-99.240;2022-12-29T03:37:49;7.50;;;3.42;;
73672;SDS011;61972;19.480;-99.240;2022-12-29T03:40:19;6.07;;;3.00;;
73672;SDS011;61972;19.480;-99.240;2022-12-29T03:42:47;5.75;;;3.00;;
73672;SDS011;61972;19.480;-99.240;2022-12-29T03:45:13;7.18;;;2.83;;
73672;SDS011;61972;19.480;-99.240;2022-12-29T03:47:40;5.40;;;3.67;;
73672;SDS011;61972;19.480;-99.240;2022-12-29T03:50:06;5.63;;;3.20;;
73672;SDS011;61972;19.480;-99.240;2022-12-29T03:52:33;6.30;;;3.30;;
73672;SDS011;61972;19.480;-99.240;2022-12-29T03:55:00;7.63;;;3.15;;
73672;SDS011;61972;19.480;-99.240;2022-12-29T03:57:26;5.47;;;3.30;;
73672;SDS011;61972;19.480;-99.240;2022-12-29T03:59:52;7.03;;;3.22;;
73672;SDS011;61972;19.480;-99.240;2022-12-29T04:02:18;7.05;;;3.33;;
73672;SDS011;61972;19.480;-99.240;2022-12-29T04:04:44;5.43;;;3.50;;
73672;SDS011;61972;19.480;-99.240;2022-12-29T04:07:10;9.82;;;3.75;;
73672;SDS011;61972;19.480;-99.240;2022-12-29T04:09:36;7.03;;;3.80;;
73672;SDS011;61972;19.480;-99.240;2022-12-29T04:12:02;8.45;;;4.38;;
73672;SDS011;61972;19.480;-99.240;2022-12-29T04:14:29;8.32;;;4.30;;
73672;SDS011;61972;19.480;-99.240;2022-12-29T04:16:55;8.33;;;3.83;;
73672;SDS011;61972;19.480;-99.240;2022-12-29T04:19:21;6.43;;;3.92;;
73672;SDS011;61972;19.480;-99.240;2022-12-29T04:21:47;9.23;;;4.35;;
73672;SDS011;61972;19.480;-99.240;2022-12-29T04:24:13;7.50;;;4.00;;
73672;SDS011;61972;19.480;-99.240;2022-12-29T04:26:39;8.55;;;4.05;;
73672;SDS011;61972;19.480;-99.240;2022-12-29T04:29:07;7.07;;;4.10;;
73672;SDS011;61972;19.480;-99.240;2022-12-29T04:31:33;7.25;;;3.95;;
73672;SDS011;61972;19.480;-99.240;2022-12-29T04:33:59;8.40;;;3.85;;
73672;SDS011;61972;19.480;-99.240;2022-12-29T04:36:25;7.68;;;3.78;;
73672;SDS011;61972;19.480;-99.240;2022-12-29T04:38:51;6.43;;;3.67;;
73672;SDS011;61972;19.480;-99.240;2022-12-29T04:41:17;6.23;;;3.90;;
73672;SDS011;61972;19.480;-99.240;2022-12-29T04:43:44;6.95;;;3.90;;
73672;SDS011;61972;19.480;-99.240;2022-12-29T04:46:10;8.50;;;4.15;;
73672;SDS011;61972;19.480;-99.240;2022-12-29T04:48:36;6.47;;;4.07;;
73672;SDS011;61972;19.480;-99.240;2022-12-29T04:51:02;7.85;;;3.90;;
73672;SDS011;61972;19.480;-99.240;2022-12-29T04:53:28;7.23;;;4.20;;
73672;SDS011;61972;19.480;-99.240;2022-12-29T04:55:54;6.30;;;4.07;;
73672;SDS011;61972;19.480;-99.240;2022-12-29T04:58:21;8.20;;;4.28;;
73672;SDS011;61972;19.480;-99.240;2022-12-29T05:00:47;8.55;;;4.43;;
73672;SDS011;61972;19.480;-99.240;2022-12-29T05:03:13;6.65;;;4.18;;
73672;SDS011;61972;19.480;-99.240;2022-12-29T05:05:39;8.90;;;4.40;;
73672;SDS011;61972;19.480;-99.240;2022-12-29T05:08:06;9.00;;;4.57;;
73672;SDS011;61972;19.480;-99.240;2022-12-29T05:10:32;6.85;;;3.95;;
73672;SDS011;61972;19.480;-99.240;2022-12-29T05:12:58;9.07;;;4.38;;
73672;SDS011;61972;19.480;-99.240;2022-12-29T05:15:25;7.03;;;4.60;;
73672;SDS011;61972;19.480;-99.240;2022-12-29T05:17:51;7.03;;;4.10;;
73672;SDS011;61972;19.480;-99.240;2022-12-29T05:20:17;8.30;;;4.25;;
73672;SDS011;61972;19.480;-99.240;2022-12-29T05:22:43;7.40;;;4.30;;
73672;SDS011;61972;19.480;-99.240;2022-12-29T05:25:10;7.85;;;3.88;;
73672;SDS011;61972;19.480;-99.240;2022-12-29T05:27:36;6.68;;;3.70;;
73672;SDS011;61972;19.480;-99.240;2022-12-29T05:30:05;6.87;;;3.83;;
73672;SDS011;61972;19.480;-99.240;2022-12-29T05:32:32;8.63;;;3.83;;
73672;SDS011;61972;19.480;-99.240;2022-12-29T05:34:58;6.93;;;3.65;;
73672;SDS011;61972;19.480;-99.240;2022-12-29T05:37:24;5.43;;;3.70;;
73672;SDS011;61972;19.480;-99.240;2022-12-29T05:39:50;6.40;;;3.67;;
73672;SDS011;61972;19.480;-99.240;2022-12-29T05:42:16;8.00;;;4.30;;
73672;SDS011;61972;19.480;-99.240;2022-12-29T05:44:42;8.18;;;3.78;;
73672;SDS011;61972;19.480;-99.240;2022-12-29T05:47:08;6.88;;;4.00;;
73672;SDS011;61972;19.480;-99.240;2022-12-29T05:49:34;6.63;;;3.60;;
73672;SDS011;61972;19.480;-99.240;2022-12-29T05:52:01;7.78;;;3.88;;
73672;SDS011;61972;19.480;-99.240;2022-12-29T05:54:27;6.27;;;3.80;;
73672;SDS011;61972;19.480;-99.240;2022-12-29T05:56:53;6.45;;;3.70;;
73672;SDS011;61972;19.480;-99.240;2022-12-29T05:59:19;6.53;;;3.80;;
73672;SDS011;61972;19.480;-99.240;2022-12-29T06:01:45;6.28;;;3.60;;
73672;SDS011;61972;19.480;-99.240;2022-12-29T06:04:12;6.47;;;3.45;;
73672;SDS011;61972;19.480;-99.240;2022-12-29T06:06:38;5.43;;;4.00;;
73672;SDS011;61972;19.480;-99.240;2022-12-29T06:09:05;6.20;;;3.60;;
73672;SDS011;61972;19.480;-99.240;2022-12-29T06:11:31;6.15;;;3.75;;
73672;SDS011;61972;19.480;-99.240;2022-12-29T06:13:57;5.90;;;3.35;;
73672;SDS011;61972;19.480;-99.240;2022-12-29T06:16:23;4.90;;;3.35;;
73672;SDS011;61972;19.480;-99.240;2022-12-29T06:18:49;6.70;;;3.50;;
73672;SDS011;61972;19.480;-99.240;2022-12-29T06:21:15;4.90;;;3.30;;
73672;SDS011;61972;19.480;-99.240;2022-12-29T06:23:41;5.05;;;3.33;;
73672;SDS011;61972;19.480;-99.240;2022-12-29T06:26:07;5.28;;;3.00;;
73672;SDS011;61972;19.480;-99.240;2022-12-29T06:28:33;6.03;;;3.00;;
73672;SDS011;61972;19.480;-99.240;2022-12-29T06:30:59;4.77;;;3.17;;
73672;SDS011;61972;19.480;-99.240;2022-12-29T06:33:28;7.63;;;3.38;;
73672;SDS011;61972;19.480;-99.240;2022-12-29T06:35:54;6.07;;;2.90;;
73672;SDS011;61972;19.480;-99.240;2022-12-29T06:38:20;6.82;;;3.05;;
73672;SDS011;61972;19.480;-99.240;2022-12-29T06:40:46;5.45;;;3.50;;
73672;SDS011;61972;19.480;-99.240;2022-12-29T06:43:12;4.50;;;2.90;;
73672;SDS011;61972;19.480;-99.240;2022-12-29T06:45:39;6.78;;;3.60;;
73672;SDS011;61972;19.480;-99.240;2022-12-29T06:48:05;6.47;;;3.65;;
73672;SDS011;61972;19.480;-99.240;2022-12-29T06:50:32;7.40;;;3.35;;
73672;SDS011;61972;19.480;-99.240;2022-12-29T06:53:01;6.75;;;3.65;;
73672;SDS011;61972;19.480;-99.240;2022-12-29T06:55:27;6.97;;;3.60;;
73672;SDS011;61972;19.480;-99.240;2022-12-29T06:57:54;7.47;;;3.95;;
73672;SDS011;61972;19.480;-99.240;2022-12-29T07:00:22;8.95;;;3.55;;
73672;SDS011;61972;19.480;-99.240;2022-12-29T07:02:49;8.13;;;4.05;;
73672;SDS011;61972;19.480;-99.240;2022-12-29T07:05:16;6.43;;;4.10;;
73672;SDS011;61972;19.480;-99.240;2022-12-29T07:07:42;6.30;;;4.00;;
73672;SDS011;61972;19.480;-99.240;2022-12-29T07:10:08;6.80;;;4.20;;
73672;SDS011;61972;19.480;-99.240;2022-12-29T07:12:34;6.75;;;3.97;;
73672;SDS011;61972;19.480;-99.240;2022-12-29T07:15:00;6.65;;;3.92;;
73672;SDS011;61972;19.480;-99.240;2022-12-29T07:17:27;8.25;;;4.63;;
73672;SDS011;61972;19.480;-99.240;2022-12-29T07:19:53;7.87;;;4.50;;
73672;SDS011;61972;19.480;-99.240;2022-12-29T07:22:19;7.65;;;4.20;;
73672;SDS011;61972;19.480;-99.240;2022-12-29T07:24:45;7.38;;;4.20;;
73672;SDS011;61972;19.480;-99.240;2022-12-29T07:27:11;7.93;;;3.70;;
73672;SDS011;61972;19.480;-99.240;2022-12-29T07:29:37;7.55;;;4.22;;
73672;SDS011;61972;19.480;-99.240;2022-12-29T07:32:04;7.63;;;4.07;;
73672;SDS011;61972;19.480;-99.240;2022-12-29T07:34:30;7.10;;;4.18;;
73672;SDS011;61972;19.480;-99.240;2022-12-29T07:36:56;6.22;;;3.80;;
73672;SDS011;61972;19.480;-99.240;2022-12-29T07:39:22;7.10;;;3.92;;
73672;SDS011;61972;19.480;-99.240;2022-12-29T07:41:48;6.60;;;3.78;;
73672;SDS011;61972;19.480;-99.240;2022-12-29T07:44:14;8.30;;;4.23;;
73672;SDS011;61972;19.480;-99.240;2022-12-29T07:46:40;8.88;;;4.07;;
73672;SDS011;61972;19.480;-99.240;2022-12-29T07:49:06;8.85;;;3.80;;
73672;SDS011;61972;19.480;-99.240;2022-12-29T07:51:32;7.53;;;3.95;;
73672;SDS011;61972;19.480;-99.240;2022-12-29T07:53:59;7.57;;;4.00;;
73672;SDS011;61972;19.480;-99.240;2022-12-29T07:56:26;7.47;;;4.07;;
73672;SDS011;61972;19.480;-99.240;2022-12-29T07:58:52;6.70;;;3.85;;
73672;SDS011;61972;19.480;-99.240;2022-12-29T08:01:18;7.35;;;3.60;;
73672;SDS011;61972;19.480;-99.240;2022-12-29T08:03:44;5.90;;;3.75;;
73672;SDS011;61972;19.480;-99.240;2022-12-29T08:06:11;6.55;;;3.60;;
73672;SDS011;61972;19.480;-99.240;2022-12-29T08:08:37;6.17;;;3.73;;
73672;SDS011;61972;19.480;-99.240;2022-12-29T08:11:03;6.07;;;3.80;;
73672;SDS011;61972;19.480;-99.240;2022-12-29T08:13:29;6.25;;;3.75;;
73672;SDS011;61972;19.480;-99.240;2022-12-29T08:15:57;7.32;;;4.30;;
73672;SDS011;61972;19.480;-99.240;2022-12-29T08:18:24;5.97;;;3.70;;
73672;SDS011;61972;19.480;-99.240;2022-12-29T08:20:50;5.93;;;3.80;;
73672;SDS011;61972;19.480;-99.240;2022-12-29T08:23:16;6.70;;;3.58;;
73672;SDS011;61972;19.480;-99.240;2022-12-29T08:25:42;6.82;;;3.60;;
73672;SDS011;61972;19.480;-99.240;2022-12-29T08:28:08;8.07;;;3.95;;
73672;SDS011;61972;19.480;-99.240;2022-12-29T08:30:35;5.43;;;3.47;;
73672;SDS011;61972;19.480;-99.240;2022-12-29T08:33:01;8.83;;;3.57;;
73672;SDS011;61972;19.480;-99.240;2022-12-29T08:35:27;6.50;;;3.60;;
73672;SDS011;61972;19.480;-99.240;2022-12-29T08:37:54;5.90;;;3.75;;
73672;SDS011;61972;19.480;-99.240;2022-12-29T08:40:20;5.82;;;3.72;;
73672;SDS011;61972;19.480;-99.240;2022-12-29T08:42:46;10.88;;;3.83;;
73672;SDS011;61972;19.480;-99.240;2022-12-29T08:45:12;6.90;;;3.80;;
73672;SDS011;61972;19.480;-99.240;2022-12-29T08:47:38;6.22;;;3.40;;
73672;SDS011;61972;19.480;-99.240;2022-12-29T08:50:04;7.47;;;3.58;;
73672;SDS011;61972;19.480;-99.240;2022-12-29T08:52:31;6.82;;;3.40;;
73672;SDS011;61972;19.480;-99.240;2022-12-29T08:54:57;5.85;;;3.50;;
73672;SDS011;61972;19.480;-99.240;2022-12-29T08:57:23;6.70;;;3.53;;
73672;SDS011;61972;19.480;-99.240;2022-12-29T08:59:50;6.35;;;3.40;;
73672;SDS011;61972;19.480;-99.240;2022-12-29T09:02:16;6.63;;;3.30;;
73672;SDS011;61972;19.480;-99.240;2022-12-29T09:04:42;6.15;;;3.30;;
73672;SDS011;61972;19.480;-99.240;2022-12-29T09:07:08;7.10;;;3.10;;
73672;SDS011;61972;19.480;-99.240;2022-12-29T09:09:34;8.07;;;3.33;;
73672;SDS011;61972;19.480;-99.240;2022-12-29T09:12:00;5.72;;;3.00;;
73672;SDS011;61972;19.480;-99.240;2022-12-29T09:14:26;6.28;;;3.33;;
73672;SDS011;61972;19.480;-99.240;2022-12-29T09:16:53;5.13;;;3.25;;
73672;SDS011;61972;19.480;-99.240;2022-12-29T09:19:38;5.65;;;3.10;;
73672;SDS011;61972;19.480;-99.240;2022-12-29T09:22:04;5.03;;;3.00;;
73672;SDS011;61972;19.480;-99.240;2022-12-29T09:24:30;4.68;;;3.05;;
73672;SDS011;61972;19.480;-99.240;2022-12-29T09:26:56;4.85;;;2.70;;
73672;SDS011;61972;19.480;-99.240;2022-12-29T09:29:22;5.60;;;3.55;;
73672;SDS011;61972;19.480;-99.240;2022-12-29T09:31:49;4.95;;;3.33;;
73672;SDS011;61972;19.480;-99.240;2022-12-29T09:34:15;5.57;;;3.07;;
73672;SDS011;61972;19.480;-99.240;2022-12-29T09:36:41;6.03;;;3.00;;
73672;SDS011;61972;19.480;-99.240;2022-12-29T09:39:07;4.85;;;2.90;;
73672;SDS011;61972;19.480;-99.240;2022-12-29T09:41:38;5.50;;;2.60;;
73672;SDS011;61972;19.480;-99.240;2022-12-29T09:46:51;4.90;;;3.00;;
73672;SDS011;61972;19.480;-99.240;2022-12-29T09:52:22;6.10;;;3.17;;
73672;SDS011;61972;19.480;-99.240;2022-12-29T09:57:52;4.93;;;3.17;;
73672;SDS011;61972;19.480;-99.240;2022-12-29T10:00:36;4.97;;;2.77;;
73672;SDS011;61972;19.480;-99.240;2022-12-29T10:03:19;4.50;;;2.80;;
73672;SDS011;61972;19.480;-99.240;2022-12-29T10:16:33;4.75;;;2.80;;
73672;SDS011;61972;19.480;-99.240;2022-12-29T10:19:25;5.95;;;3.00;;
73672;SDS011;61972;19.480;-99.240;2022-12-29T10:22:04;5.03;;;2.72;;
73672;SDS011;61972;19.480;-99.240;2022-12-29T10:24:40;5.07;;;2.90;;
73672;SDS011;61972;19.480;-99.240;2022-12-29T10:27:12;5.20;;;2.70;;
73672;SDS011;61972;19.480;-99.240;2022-12-29T10:29:43;5.18;;;2.72;;
73672;SDS011;61972;19.480;-99.240;2022-12-29T10:32:25;5.15;;;2.53;;
73672;SDS011;61972;19.480;-99.240;2022-12-29T10:34:59;5.15;;;2.55;;
73672;SDS011;61972;19.480;-99.240;2022-12-29T10:37:43;4.63;;;2.83;;
73672;SDS011;61972;19.480;-99.240;2022-12-29T10:42:56;4.80;;;2.72;;
73672;SDS011;61972;19.480;-99.240;2022-12-29T10:45:28;4.38;;;2.72;;
73672;SDS011;61972;19.480;-99.240;2022-12-29T10:50:35;4.03;;;2.75;;
73672;SDS011;61972;19.480;-99.240;2022-12-29T10:53:07;4.30;;;2.60;;
73672;SDS011;61972;19.480;-99.240;2022-12-29T10:55:44;5.05;;;2.65;;
73672;SDS011;61972;19.480;-99.240;2022-12-29T10:58:12;4.55;;;2.70;;
73672;SDS011;61972;19.480;-99.240;2022-12-29T11:00:40;4.82;;;2.80;;
73672;SDS011;61972;19.480;-99.240;2022-12-29T11:05:41;4.33;;;2.77;;
73672;SDS011;61972;19.480;-99.240;2022-12-29T11:08:20;7.22;;;2.75;;
73672;SDS011;61972;19.480;-99.240;2022-12-29T11:10:59;4.75;;;2.67;;
73672;SDS011;61972;19.480;-99.240;2022-12-29T11:13:31;4.93;;;2.75;;
73672;SDS011;61972;19.480;-99.240;2022-12-29T11:15:59;7.47;;;2.53;;
73672;SDS011;61972;19.480;-99.240;2022-12-29T11:18:33;6.33;;;2.80;;
73672;SDS011;61972;19.480;-99.240;2022-12-29T11:21:03;4.30;;;2.60;;
73672;SDS011;61972;19.480;-99.240;2022-12-29T11:23:32;4.10;;;2.58;;
73672;SDS011;61972;19.480;-99.240;2022-12-29T11:28:42;5.10;;;2.80;;
73672;SDS011;61972;19.480;-99.240;2022-12-29T11:31:13;4.30;;;2.70;;
73672;SDS011;61972;19.480;-99.240;2022-12-29T11:33:41;3.80;;;2.50;;
73672;SDS011;61972;19.480;-99.240;2022-12-29T11:36:10;3.85;;;2.42;;
73672;SDS011;61972;19.480;-99.240;2022-12-29T11:38:41;4.35;;;2.58;;
73672;SDS011;61972;19.480;-99.240;2022-12-29T11:41:12;3.90;;;2.47;;
73672;SDS011;61972;19.480;-99.240;2022-12-29T11:43:44;4.33;;;2.90;;
73672;SDS011;61972;19.480;-99.240;2022-12-29T11:46:31;5.00;;;2.97;;
73672;SDS011;61972;19.480;-99.240;2022-12-29T11:48:59;4.28;;;2.60;;
73672;SDS011;61972;19.480;-99.240;2022-12-29T11:51:28;5.10;;;2.50;;
73672;SDS011;61972;19.480;-99.240;2022-12-29T11:54:18;5.70;;;2.80;;
73672;SDS011;61972;19.480;-99.240;2022-12-29T11:56:56;5.17;;;2.97;;
73672;SDS011;61972;19.480;-99.240;2022-12-29T11:59:25;4.35;;;2.63;;
73672;SDS011;61972;19.480;-99.240;2022-12-29T12:02:10;4.68;;;2.70;;
73672;SDS011;61972;19.480;-99.240;2022-12-29T12:04:51;4.45;;;2.60;;
73672;SDS011;61972;19.480;-99.240;2022-12-29T12:07:33;4.40;;;3.00;;
73672;SDS011;61972;19.480;-99.240;2022-12-29T12:10:24;6.27;;;3.00;;
73672;SDS011;61972;19.480;-99.240;2022-12-29T12:12:58;4.50;;;2.70;;
73672;SDS011;61972;19.480;-99.240;2022-12-29T12:16:04;4.35;;;2.80;;
73672;SDS011;61972;19.480;-99.240;2022-12-29T12:21:18;4.65;;;2.80;;
73672;SDS011;61972;19.480;-99.240;2022-12-29T12:27:18;5.15;;;2.70;;
73672;SDS011;61972;19.480;-99.240;2022-12-29T12:30:19;4.38;;;2.72;;
73672;SDS011;61972;19.480;-99.240;2022-12-29T12:41:24;4.70;;;3.08;;
73672;SDS011;61972;19.480;-99.240;2022-12-29T12:44:20;4.38;;;2.67;;
73672;SDS011;61972;19.480;-99.240;2022-12-29T12:47:19;4.78;;;2.78;;
73672;SDS011;61972;19.480;-99.240;2022-12-29T13:01:31;4.32;;;2.80;;
73672;SDS011;61972;19.480;-99.240;2022-12-29T13:10:21;5.10;;;2.53;;
73672;SDS011;61972;19.480;-99.240;2022-12-29T13:15:51;4.97;;;2.63;;
73672;SDS011;61972;19.480;-99.240;2022-12-29T13:18:43;4.10;;;2.63;;
73672;SDS011;61972;19.480;-99.240;2022-12-29T13:21:21;5.53;;;2.60;;
73672;SDS011;61972;19.480;-99.240;2022-12-29T13:32:02;4.63;;;2.90;;
73672;SDS011;61972;19.480;-99.240;2022-12-29T13:37:18;6.20;;;3.10;;
73672;SDS011;61972;19.480;-99.240;2022-12-29T13:39:49;5.30;;;3.20;;
73672;SDS011;61972;19.480;-99.240;2022-12-29T13:42:19;4.30;;;2.80;;
73672;SDS011;61972;19.480;-99.240;2022-12-29T13:44:55;4.80;;;2.90;;
73672;SDS011;61972;19.480;-99.240;2022-12-29T13:47:29;5.27;;;3.00;;
73672;SDS011;61972;19.480;-99.240;2022-12-29T13:50:18;7.05;;;2.95;;
73672;SDS011;61972;19.480;-99.240;2022-12-29T13:52:59;5.55;;;2.72;;
73672;SDS011;61972;19.480;-99.240;2022-12-29T13:55:49;5.78;;;2.92;;
73672;SDS011;61972;19.480;-99.240;2022-12-29T13:58:26;5.68;;;3.03;;
73672;SDS011;61972;19.480;-99.240;2022-12-29T14:08:45;4.43;;;2.63;;
73672;SDS011;61972;19.480;-99.240;2022-12-29T14:11:14;5.45;;;2.97;;
73672;SDS011;61972;19.480;-99.240;2022-12-29T14:13:45;5.90;;;2.80;;
73672;SDS011;61972;19.480;-99.240;2022-12-29T14:16:24;4.85;;;3.10;;
73672;SDS011;61972;19.480;-99.240;2022-12-29T14:18:56;4.30;;;2.78;;
73672;SDS011;61972;19.480;-99.240;2022-12-29T14:21:37;4.88;;;2.72;;
73672;SDS011;61972;19.480;-99.240;2022-12-29T14:26:58;5.80;;;3.13;;
73672;SDS011;61972;19.480;-99.240;2022-12-29T14:31:50;5.00;;;2.80;;
73672;SDS011;61972;19.480;-99.240;2022-12-29T14:36:54;7.38;;;3.10;;
73672;SDS011;61972;19.480;-99.240;2022-12-29T14:42:20;8.10;;;2.90;;
73672;SDS011;61972;19.480;-99.240;2022-12-29T14:45:01;9.45;;;2.72;;
73672;SDS011;61972;19.480;-99.240;2022-12-29T14:47:51;5.85;;;2.90;;
73672;SDS011;61972;19.480;-99.240;2022-12-29T14:50:22;6.30;;;2.90;;
73672;SDS011;61972;19.480;-99.240;2022-12-29T14:52:52;5.70;;;2.73;;
73672;SDS011;61972;19.480;-99.240;2022-12-29T14:55:30;6.82;;;3.15;;
73672;SDS011;61972;19.480;-99.240;2022-12-29T14:58:49;6.03;;;2.85;;
73672;SDS011;61972;19.480;-99.240;2022-12-29T15:01:20;6.80;;;3.17;;
73672;SDS011;61972;19.480;-99.240;2022-12-29T15:04:20;8.15;;;2.80;;
73672;SDS011;61972;19.480;-99.240;2022-12-29T15:06:50;5.27;;;3.10;;
73672;SDS011;61972;19.480;-99.240;2022-12-29T15:11:49;6.75;;;3.10;;
73672;SDS011;61972;19.480;-99.240;2022-12-29T15:14:31;5.22;;;2.88;;
73672;SDS011;61972;19.480;-99.240;2022-12-29T15:17:00;11.23;;;3.75;;
73672;SDS011;61972;19.480;-99.240;2022-12-29T15:19:34;11.43;;;3.20;;
73672;SDS011;61972;19.480;-99.240;2022-12-29T15:22:02;5.32;;;3.03;;
73672;SDS011;61972;19.480;-99.240;2022-12-29T15:24:28;6.07;;;3.00;;
73672;SDS011;61972;19.480;-99.240;2022-12-29T15:26:54;5.70;;;3.15;;
73672;SDS011;61972;19.480;-99.240;2022-12-29T15:29:30;5.25;;;3.00;;
73672;SDS011;61972;19.480;-99.240;2022-12-29T15:32:02;5.93;;;3.40;;
73672;SDS011;61972;19.480;-99.240;2022-12-29T15:34:43;6.38;;;3.08;;
73672;SDS011;61972;19.480;-99.240;2022-12-29T15:37:15;8.98;;;3.58;;
73672;SDS011;61972;19.480;-99.240;2022-12-29T15:39:47;5.43;;;3.00;;
73672;SDS011;61972;19.480;-99.240;2022-12-29T15:45:18;7.83;;;3.03;;
73672;SDS011;61972;19.480;-99.240;2022-12-29T15:47:44;6.72;;;3.30;;
73672;SDS011;61972;19.480;-99.240;2022-12-29T15:52:53;5.47;;;3.10;;
73672;SDS011;61972;19.480;-99.240;2022-12-29T15:55:41;10.23;;;3.50;;
73672;SDS011;61972;19.480;-99.240;2022-12-29T15:58:23;5.40;;;3.07;;
73672;SDS011;61972;19.480;-99.240;2022-12-29T16:00:55;6.47;;;3.00;;
73672;SDS011;61972;19.480;-99.240;2022-12-29T16:03:24;5.55;;;3.17;;
73672;SDS011;61972;19.480;-99.240;2022-12-29T16:05:53;8.63;;;3.58;;
73672;SDS011;61972;19.480;-99.240;2022-12-29T16:08:39;8.40;;;3.63;;
73672;SDS011;61972;19.480;-99.240;2022-12-29T16:11:17;7.27;;;3.70;;
73672;SDS011;61972;19.480;-99.240;2022-12-29T16:13:49;7.28;;;4.07;;
73672;SDS011;61972;19.480;-99.240;2022-12-29T16:16:30;8.55;;;4.32;;
73672;SDS011;61972;19.480;-99.240;2022-12-29T16:19:01;10.60;;;4.60;;
73672;SDS011;61972;19.480;-99.240;2022-12-29T16:21:35;9.00;;;4.85;;
73672;SDS011;61972;19.480;-99.240;2022-12-29T16:24:05;8.70;;;4.85;;
73672;SDS011;61972;19.480;-99.240;2022-12-29T16:26:38;12.20;;;4.88;;
73672;SDS011;61972;19.480;-99.240;2022-12-29T16:29:11;8.90;;;4.93;;
73672;SDS011;61972;19.480;-99.240;2022-12-29T16:34:28;10.15;;;4.93;;
73672;SDS011;61972;19.480;-99.240;2022-12-29T16:36:59;9.90;;;4.90;;
73672;SDS011;61972;19.480;-99.240;2022-12-29T16:39:31;9.85;;;5.25;;
73672;SDS011;61972;19.480;-99.240;2022-12-29T16:42:47;9.07;;;4.70;;
73672;SDS011;61972;19.480;-99.240;2022-12-29T16:50:31;10.82;;;5.38;;
73672;SDS011;61972;19.480;-99.240;2022-12-29T16:52:58;9.07;;;4.80;;
73672;SDS011;61972;19.480;-99.240;2022-12-29T16:55:24;10.17;;;5.07;;
73672;SDS011;61972;19.480;-99.240;2022-12-29T16:57:50;8.45;;;4.57;;
73672;SDS011;61972;19.480;-99.240;2022-12-29T17:00:22;11.25;;;4.68;;
73672;SDS011;61972;19.480;-99.240;2022-12-29T17:02:50;9.68;;;4.60;;
73672;SDS011;61972;19.480;-99.240;2022-12-29T17:05:19;10.55;;;4.50;;
73672;SDS011;61972;19.480;-99.240;2022-12-29T17:07:45;7.77;;;4.63;;
73672;SDS011;61972;19.480;-99.240;2022-12-29T17:10:12;8.73;;;4.47;;
73672;SDS011;61972;19.480;-99.240;2022-12-29T17:12:40;9.23;;;4.82;;
73672;SDS011;61972;19.480;-99.240;2022-12-29T17:17:53;9.48;;;5.05;;
73672;SDS011;61972;19.480;-99.240;2022-12-29T17:20:22;9.83;;;5.50;;